createdAt,value
2019-02-23T00:01:01.295Z,77.78
2019-02-23T00:02:10.730Z,78.11
2019-02-23T00:03:20.667Z,78.11
2019-02-23T00:04:30.359Z,77.98
2019-02-23T00:05:40.053Z,78.02
2019-02-23T00:06:50.033Z,78.11
2019-02-23T00:07:59.972Z,77.92
2019-02-23T00:09:09.409Z,78.02
2019-02-23T00:10:18.849Z,77.83
2019-02-23T00:11:28.354Z,78.08
2019-02-23T00:12:37.798Z,77.78
2019-02-23T00:13:47.732Z,77.78
2019-02-23T00:14:57.420Z,77.98
2019-02-23T00:16:07.116Z,77.5
2019-02-23T00:17:16.671Z,77.88
2019-02-23T00:18:26.602Z,78.02
2019-02-23T00:19:36.053Z,77.69
2019-02-23T00:20:45.993Z,77.78
2019-02-23T00:21:55.429Z,77.88
2019-02-23T00:23:05.403Z,77.69
2019-02-23T00:24:14.859Z,77.78
2019-02-23T00:25:24.303Z,77.88
2019-02-23T00:26:34.238Z,77.69
2019-02-23T00:27:43.933Z,77.78
2019-02-23T00:28:53.883Z,77.98
2019-02-23T00:30:03.580Z,77.78
2019-02-23T00:31:13.030Z,77.78
2019-02-23T00:32:22.520Z,77.78
2019-02-23T00:33:32.027Z,77.78
2019-02-23T00:34:41.713Z,77.98
2019-02-23T00:35:51.650Z,77.98
2019-02-23T00:37:01.585Z,77.98
2019-02-23T00:38:11.273Z,77.98
2019-02-23T00:39:20.466Z,78.08
2019-02-23T00:40:30.157Z,77.88
2019-02-23T00:41:40.093Z,77.5
2019-02-23T00:42:49.782Z,77.59
2019-02-23T00:43:59.231Z,77.98
2019-02-23T00:45:09.172Z,77.98
2019-02-23T00:46:18.618Z,77.98
2019-02-23T00:47:28.571Z,77.88
2019-02-23T00:48:38.299Z,77.98
2019-02-23T00:49:47.754Z,77.98
2019-02-23T00:50:57.447Z,77.5
2019-02-23T00:52:07.141Z,77.5
2019-02-23T00:53:17.080Z,77.4
2019-02-23T00:54:27.039Z,77.98
2019-02-23T00:55:36.727Z,77.31
2019-02-23T00:56:46.670Z,77.98
2019-02-23T00:57:56.105Z,77.5
2019-02-23T00:59:05.561Z,77.4
2019-02-23T01:00:15.575Z,77.5
2019-02-23T01:01:25.522Z,77.4
2019-02-23T01:02:35.543Z,77.5
2019-02-23T01:03:45.237Z,77.21
2019-02-23T01:04:54.925Z,77.31
2019-02-23T01:06:04.877Z,77.5
2019-02-23T01:07:14.401Z,77.5
2019-02-23T01:08:24.090Z,77.21
2019-02-23T01:09:34.027Z,77.5
2019-02-23T01:10:43.727Z,77.4
2019-02-23T01:12:02.986Z,77.4
2019-02-23T01:13:12.425Z,77.21
2019-02-23T01:14:21.863Z,77.5
2019-02-23T01:15:31.582Z,77.69
2019-02-23T01:16:40.768Z,77.21
2019-02-23T01:17:49.709Z,77.31
2019-02-23T01:18:59.147Z,77.4
2019-02-23T01:20:08.862Z,77.4
2019-02-23T01:21:18.556Z,77.4
2019-02-23T01:22:28.551Z,77.36
2019-02-23T01:23:38.063Z,77.17
2019-02-23T01:24:47.497Z,77.46
2019-02-23T01:25:57.632Z,77.4
2019-02-23T01:27:07.077Z,77.4
2019-02-23T01:28:17.016Z,77.4
2019-02-23T01:29:26.967Z,77.5
2019-02-23T01:30:36.908Z,77.36
2019-02-23T01:31:46.601Z,77.36
2019-02-23T01:32:56.287Z,77.36
2019-02-23T01:34:05.982Z,77.26
2019-02-23T01:35:15.665Z,77.26
2019-02-23T01:36:25.640Z,77.46
2019-02-23T01:37:35.084Z,77.36
2019-02-23T01:38:45.031Z,77.46
2019-02-23T01:39:54.720Z,77.26
2019-02-23T01:41:04.663Z,77.08
2019-02-23T01:42:14.598Z,77.46
2019-02-23T01:43:24.533Z,77.46
2019-02-23T01:44:34.230Z,77.36
2019-02-23T01:45:45.108Z,77.36
2019-02-23T01:46:55.048Z,77.46
2019-02-23T01:48:04.756Z,77.26
2019-02-23T01:49:13.950Z,77.56
2019-02-23T01:50:23.650Z,77.26
2019-02-23T01:51:33.349Z,77.36
2019-02-23T01:52:43.290Z,77.46
2019-02-23T01:53:53.230Z,77.46
2019-02-23T01:55:02.737Z,77.26
2019-02-23T01:56:12.178Z,77.46
2019-02-23T01:57:21.868Z,77.36
2019-02-23T01:58:31.319Z,77.56
2019-02-23T01:59:41.007Z,77.36
2019-02-23T02:00:50.191Z,77.17
2019-02-23T02:02:00.144Z,77.36
2019-02-23T02:03:09.832Z,77.36
2019-02-23T02:04:19.520Z,77.36
2019-02-23T02:05:29.231Z,77.46
2019-02-23T02:06:39.176Z,77.46
2019-02-23T02:07:48.863Z,77.36
2019-02-23T02:08:58.554Z,77.36
2019-02-23T02:10:07.751Z,77.36
2019-02-23T02:11:17.266Z,77.36
2019-02-23T02:12:27.196Z,77.26
2019-02-23T02:13:36.920Z,77.36
2019-02-23T02:17:57.484Z,77.56
2019-02-23T02:19:07.192Z,77.36
2019-02-23T02:20:17.129Z,77.56
2019-02-23T02:21:27.066Z,77.36
2019-02-23T02:22:36.749Z,77.46
2019-02-23T02:23:46.187Z,77.36
2019-02-23T02:24:56.161Z,77.36
2019-02-23T02:26:05.604Z,77.36
2019-02-23T02:27:14.794Z,77.36
2019-02-23T02:28:24.732Z,77.56
2019-02-23T02:29:34.185Z,77.46
2019-02-23T02:30:43.619Z,77.46
2019-02-23T02:31:53.318Z,77.46
2019-02-23T02:33:02.772Z,77.46
2019-02-23T02:34:12.720Z,77.46
2019-02-23T02:35:22.429Z,77.46
2019-02-23T02:36:32.374Z,77.46
2019-02-23T02:37:42.118Z,77.46
2019-02-23T02:38:51.814Z,77.08
2019-02-23T02:40:01.763Z,77.46
2019-02-23T02:41:11.468Z,77.56
2019-02-23T02:42:21.170Z,77.36
2019-02-23T02:43:30.634Z,77.17
2019-02-23T02:44:40.393Z,77.56
2019-02-23T02:45:50.338Z,77.46
2019-02-23T02:46:59.796Z,76.98
2019-02-23T02:48:09.755Z,76.98
2019-02-23T02:49:19.449Z,77.46
2019-02-23T02:50:29.144Z,77.46
2019-02-23T02:51:39.085Z,76.88
2019-02-23T02:52:49.027Z,77.08
2019-02-23T02:53:58.965Z,76.98
2019-02-23T02:55:08.827Z,77.56
2019-02-23T02:56:18.786Z,77.26
2019-02-23T02:57:28.228Z,76.88
2019-02-23T02:58:38.171Z,76.88
2019-02-23T02:59:48.117Z,77.36
2019-02-23T03:00:57.813Z,77.17
2019-02-23T03:02:07.771Z,77.08
2019-02-23T03:03:17.718Z,77.17
2019-02-23T03:04:27.168Z,77.17
2019-02-23T03:05:37.128Z,77.56
2019-02-23T03:06:47.140Z,77.08
2019-02-23T03:07:56.653Z,77.36
2019-02-23T03:09:06.345Z,76.88
2019-02-23T03:10:15.803Z,77.08
2019-02-23T03:11:25.239Z,76.98
2019-02-23T03:12:34.931Z,76.84
2019-02-23T03:13:44.874Z,76.98
2019-02-23T03:14:54.056Z,76.88
2019-02-23T03:16:03.521Z,76.88
2019-02-23T03:17:13.216Z,76.98
2019-02-23T03:18:22.904Z,76.59
2019-02-23T03:19:32.848Z,76.94
2019-02-23T03:20:42.809Z,77.04
2019-02-23T03:21:52.271Z,76.98
2019-02-23T03:23:01.962Z,76.75
2019-02-23T03:24:11.655Z,77.17
2019-02-23T03:25:21.353Z,76.98
2019-02-23T03:26:30.544Z,77.04
2019-02-23T03:27:40.245Z,76.94
2019-02-23T03:28:49.931Z,76.94
2019-02-23T03:29:59.629Z,76.98
2019-02-23T03:31:09.601Z,77.36
2019-02-23T03:32:19.110Z,77.04
2019-02-23T03:33:28.884Z,76.98
2019-02-23T03:34:39.041Z,76.84
2019-02-23T03:35:48.988Z,77.36
2019-02-23T03:36:58.928Z,76.84
2019-02-23T03:38:08.633Z,77.33
2019-02-23T03:39:18.083Z,76.84
2019-02-23T03:40:27.797Z,76.94
2019-02-23T03:41:37.482Z,76.94
2019-02-23T03:42:47.428Z,77.33
2019-02-23T03:43:57.385Z,77.51
2019-02-23T03:45:07.520Z,77.04
2019-02-23T03:46:17.233Z,77.04
2019-02-23T03:47:26.908Z,77.04
2019-02-23T03:48:36.344Z,76.94
2019-02-23T03:49:46.046Z,77.33
2019-02-23T03:50:55.240Z,76.56
2019-02-23T03:52:04.968Z,77.23
2019-02-23T03:53:14.912Z,77.04
2019-02-23T03:54:24.624Z,77.23
2019-02-23T03:55:34.313Z,77.51
2019-02-23T03:56:44.415Z,76.84
2019-02-23T03:57:54.139Z,76.65
2019-02-23T03:59:03.824Z,76.65
2019-02-23T04:00:13.517Z,76.84
2019-02-23T04:01:23.465Z,77.23
2019-02-23T04:02:33.411Z,77.33
2019-02-23T04:03:43.361Z,77.04
2019-02-23T04:04:53.064Z,76.94
2019-02-23T04:06:02.260Z,76.94
2019-02-23T04:07:12.210Z,76.84
2019-02-23T04:08:21.934Z,77.33
2019-02-23T04:09:31.121Z,76.75
2019-02-23T04:10:40.577Z,77.04
2019-02-23T04:11:50.514Z,77.23
2019-02-23T04:13:00.481Z,77.23
2019-02-23T04:14:10.188Z,76.94
2019-02-23T04:15:19.960Z,77.23
2019-02-23T04:16:29.406Z,76.94
2019-02-23T04:17:39.357Z,76.94
2019-02-23T04:18:49.303Z,77.33
2019-02-23T04:19:59.090Z,77.51
2019-02-23T04:21:09.100Z,77.33
2019-02-23T04:22:18.548Z,76.94
2019-02-23T04:23:28.507Z,77.23
2019-02-23T04:24:38.449Z,77.33
2019-02-23T04:25:48.266Z,76.46
2019-02-23T04:26:57.966Z,77.23
2019-02-23T04:28:07.910Z,77.04
2019-02-23T04:29:17.865Z,77.13
2019-02-23T04:30:27.825Z,76.75
2019-02-23T04:31:37.273Z,77.23
2019-02-23T04:32:46.711Z,77.33
2019-02-23T04:33:56.654Z,76.65
2019-02-23T04:35:06.603Z,77.13
2019-02-23T04:36:16.352Z,76.94
2019-02-23T04:37:25.791Z,77.23
2019-02-23T04:38:35.723Z,77.33
2019-02-23T04:39:45.430Z,77.13
2019-02-23T04:40:55.367Z,76.94
2019-02-23T04:42:05.055Z,76.37
2019-02-23T04:43:14.746Z,77.23
2019-02-23T04:44:24.429Z,77.13
2019-02-23T04:45:33.647Z,76.94
2019-02-23T04:46:43.119Z,76.94
2019-02-23T04:47:53.095Z,77.13
2019-02-23T04:49:02.530Z,76.94
2019-02-23T04:50:11.961Z,77.23
2019-02-23T04:51:21.699Z,76.65
2019-02-23T04:52:31.639Z,77.33
2019-02-23T04:53:41.089Z,76.56
2019-02-23T04:54:51.040Z,77.23
2019-02-23T04:56:01.091Z,77.23
2019-02-23T04:57:10.542Z,77.13
2019-02-23T04:58:20.245Z,77.33
2019-02-23T04:59:30.221Z,77.04
2019-02-23T05:00:40.175Z,77.33
2019-02-23T05:01:52.361Z,76.37
2019-02-23T05:03:02.395Z,76.46
2019-02-23T05:04:12.358Z,76.65
2019-02-23T05:05:21.816Z,76.94
2019-02-23T05:06:31.273Z,76.84
2019-02-23T05:07:41.219Z,76.94
2019-02-23T05:08:50.923Z,76.46
2019-02-23T05:10:00.422Z,76.94
2019-02-23T05:11:09.979Z,76.56
2019-02-23T05:12:19.954Z,76.81
2019-02-23T05:13:29.657Z,76.75
2019-02-23T05:14:39.607Z,76.94
2019-02-23T05:15:49.578Z,76.65
2019-02-23T05:16:59.013Z,76.65
2019-02-23T05:18:08.694Z,76.84
2019-02-23T05:19:18.384Z,76.84
2019-02-23T05:20:28.365Z,76.65
2019-02-23T05:21:37.583Z,76.56
2019-02-23T05:22:47.010Z,76.94
2019-02-23T05:23:56.722Z,76.46
2019-02-23T05:25:06.675Z,76.75
2019-02-23T05:26:16.361Z,76.42
2019-02-23T05:27:26.313Z,76.75
2019-02-23T05:28:36.275Z,76.75
2019-02-23T05:29:45.467Z,76.71
2019-02-23T05:30:55.155Z,76.52
2019-02-23T05:32:05.114Z,76.75
2019-02-23T05:33:15.067Z,76.75
2019-02-23T05:34:24.761Z,76.71
2019-02-23T05:35:34.454Z,76.52
2019-02-23T05:36:43.902Z,76.65
2019-02-23T05:37:53.604Z,76.62
2019-02-23T05:39:03.586Z,76.62
2019-02-23T05:40:13.310Z,76.84
2019-02-23T05:41:23.260Z,76.81
2019-02-23T05:42:32.969Z,76.62
2019-02-23T05:43:42.919Z,76.9
2019-02-23T05:44:52.871Z,76.62
2019-02-23T05:46:02.067Z,76.52
2019-02-23T05:47:12.169Z,77.09
2019-02-23T05:48:21.879Z,76.42
2019-02-23T05:49:31.578Z,76.62
2019-02-23T05:50:44.552Z,76.32
2019-02-23T05:51:54.251Z,77.29
2019-02-23T05:53:03.721Z,77.19
2019-02-23T05:54:13.410Z,76.9
2019-02-23T05:55:22.609Z,76.81
2019-02-23T05:56:32.302Z,76.94
2019-02-23T05:57:41.990Z,77.29
2019-02-23T05:58:51.932Z,77.48
2019-02-23T06:00:01.634Z,77.19
2019-02-23T06:01:11.077Z,77.9
2019-02-23T06:02:20.782Z,77.29
2019-02-23T06:03:30.726Z,77.8
2019-02-23T06:04:40.662Z,77.9
2019-02-23T06:05:50.375Z,77.61
2019-02-23T06:07:00.078Z,77.51
2019-02-23T06:08:10.038Z,77.71
2019-02-23T06:09:19.741Z,77.61
2019-02-23T06:10:29.441Z,77.51
2019-02-23T06:11:39.130Z,77.71
2019-02-23T06:12:49.130Z,77.51
2019-02-23T06:13:58.832Z,77.8
2019-02-23T06:15:08.770Z,77.9
2019-02-23T06:16:18.463Z,77.9
2019-02-23T06:17:28.414Z,77.51
2019-02-23T06:18:37.862Z,77.61
2019-02-23T06:19:47.815Z,77.58
2019-02-23T06:20:57.502Z,78.19
2019-02-23T06:22:07.255Z,79.34
2019-02-23T06:23:17.217Z,78.77
2019-02-23T06:24:27.165Z,79.44
2019-02-23T06:25:37.141Z,79.82
2019-02-23T06:26:46.853Z,79.53
2019-02-23T06:27:56.800Z,79.14
2019-02-23T06:29:06.775Z,79.14
2019-02-23T06:30:18.399Z,78.96
2019-02-23T06:31:28.201Z,79.11
2019-02-23T06:32:37.426Z,79.14
2019-02-23T06:33:46.868Z,79.3
2019-02-23T06:34:56.328Z,79.34
2019-02-23T06:36:06.037Z,78.96
2019-02-23T06:37:15.475Z,79.39
2019-02-23T06:38:25.162Z,78.92
2019-02-23T06:39:34.851Z,78.96
2019-02-23T06:40:44.538Z,79.44
2019-02-23T06:41:53.986Z,79.34
2019-02-23T06:43:03.173Z,79.24
2019-02-23T06:44:12.869Z,79.11
2019-02-23T06:45:22.563Z,79.21
2019-02-23T06:46:32.263Z,79.34
2019-02-23T06:47:42.210Z,79.11
2019-02-23T06:48:51.146Z,78.63
2019-02-23T06:50:00.585Z,78.53
2019-02-23T06:51:10.400Z,78.63
2019-02-23T06:52:20.356Z,78.72
2019-02-23T06:53:29.790Z,78.63
2019-02-23T06:54:39.488Z,78.63
2019-02-23T06:55:48.926Z,79.01
2019-02-23T06:56:58.670Z,79.11
2019-02-23T06:58:08.370Z,79.01
2019-02-23T06:59:17.809Z,79.11
2019-02-23T07:00:27.263Z,79.11
2019-02-23T07:01:36.953Z,79.21
2019-02-23T07:02:46.907Z,78.67
2019-02-23T07:03:56.614Z,78.53
2019-02-23T07:05:06.342Z,78.63
2019-02-23T07:06:15.835Z,78.53
2019-02-23T07:07:25.531Z,78.82
2019-02-23T07:08:34.748Z,78.67
2019-02-23T07:09:44.698Z,79.21
2019-02-23T07:10:54.660Z,79.3
2019-02-23T07:12:04.355Z,78.63
2019-02-23T07:13:14.035Z,78.63
2019-02-23T07:14:23.977Z,79.34
2019-02-23T07:15:33.919Z,79.21
2019-02-23T07:16:43.107Z,79.39
2019-02-23T07:17:53.054Z,80.07
2019-02-23T07:19:02.495Z,79.53
2019-02-23T07:20:12.181Z,79.39
2019-02-23T07:21:21.869Z,79.39
2019-02-23T07:22:33.589Z,79.49
2019-02-23T07:23:43.523Z,79.01
2019-02-23T07:24:53.226Z,79.3
2019-02-23T07:26:03.190Z,79.44
2019-02-23T07:27:12.876Z,79.53
2019-02-23T07:28:22.308Z,79.63
2019-02-23T07:29:32.240Z,79.63
2019-02-23T07:30:41.931Z,79.14
2019-02-23T07:31:51.618Z,79.3
2019-02-23T07:33:01.065Z,78.67
2019-02-23T07:34:10.766Z,78.34
2019-02-23T07:35:20.709Z,77.9
2019-02-23T07:36:30.658Z,77.61
2019-02-23T07:37:40.618Z,77.71
2019-02-23T07:38:50.542Z,77.51
2019-02-23T07:39:59.981Z,77.23
2019-02-23T07:41:09.664Z,77.38
2019-02-23T07:42:19.648Z,76.81
2019-02-23T07:43:29.335Z,77.29
2019-02-23T07:44:39.281Z,77.38
2019-02-23T07:45:48.729Z,77.19
2019-02-23T07:46:58.669Z,76.81
2019-02-23T07:48:07.855Z,76.81
2019-02-23T07:49:17.806Z,76.46
2019-02-23T07:50:27.255Z,76.52
2019-02-23T07:51:36.689Z,77.19
2019-02-23T07:52:45.880Z,77.19
2019-02-23T07:53:55.063Z,76.42
2019-02-23T07:55:04.507Z,76.52
2019-02-23T07:56:14.444Z,76.42
2019-02-23T07:57:24.142Z,76.14
2019-02-23T07:58:34.070Z,76.32
2019-02-23T07:59:43.582Z,76.14
2019-02-23T08:00:53.265Z,76.32
2019-02-23T08:02:03.204Z,76.23
2019-02-23T08:03:12.912Z,75.95
2019-02-23T08:04:22.349Z,75.56
2019-02-23T08:05:32.280Z,75.56
2019-02-23T08:06:41.731Z,75.85
2019-02-23T08:07:51.416Z,75.85
2019-02-23T08:09:01.105Z,75.37
2019-02-23T08:10:10.547Z,75.18
2019-02-23T08:11:19.760Z,75.46
2019-02-23T08:12:29.704Z,75.27
2019-02-23T08:13:40.652Z,75.18
2019-02-23T08:14:50.780Z,74.69
2019-02-23T08:16:00.708Z,74.89
2019-02-23T08:17:10.401Z,73.93
2019-02-23T08:18:20.336Z,73.65
2019-02-23T08:19:29.796Z,73.45
2019-02-23T08:20:38.982Z,73.45
2019-02-23T08:21:48.925Z,73.83
2019-02-23T08:22:58.109Z,73.55
2019-02-23T08:24:07.806Z,73.35
2019-02-23T08:25:17.247Z,72.88
2019-02-23T08:26:26.935Z,73.07
2019-02-23T08:27:36.634Z,72.59
2019-02-23T08:28:46.330Z,73.16
2019-02-23T08:29:56.012Z,72.68
2019-02-23T08:31:05.524Z,72.88
2019-02-23T08:32:16.115Z,72.49
2019-02-23T08:33:25.808Z,72.49
2019-02-23T08:34:35.749Z,72.78
2019-02-23T08:35:45.185Z,72.78
2019-02-23T08:36:54.877Z,72.78
2019-02-23T08:38:04.570Z,72.78
2019-02-23T08:39:14.268Z,72.78
2019-02-23T08:40:24.198Z,72.68
2019-02-23T08:41:33.383Z,72.88
2019-02-23T08:42:42.579Z,72.49
2019-02-23T08:43:52.514Z,72.68
2019-02-23T08:45:02.209Z,72.49
2019-02-23T08:46:11.649Z,72.39
2019-02-23T08:47:21.092Z,72.68
2019-02-23T08:48:33.257Z,72.68
2019-02-23T08:49:42.956Z,72.88
2019-02-23T08:50:52.890Z,72.97
2019-02-23T08:52:02.574Z,73.07
2019-02-23T08:53:12.278Z,73.07
2019-02-23T08:54:22.208Z,73.35
2019-02-23T08:55:31.905Z,72.97
2019-02-23T08:56:41.152Z,72.01
2019-02-23T08:57:50.849Z,70.96
2019-02-23T08:59:00.587Z,63.48
2019-02-23T09:00:10.039Z,64.53
2019-02-23T09:01:19.984Z,69.14
2019-02-23T09:02:29.412Z,74.71
2019-02-23T09:03:38.894Z,77.53
2019-02-23T09:04:48.900Z,80.24
2019-02-23T09:05:58.830Z,79.49
2019-02-23T09:07:08.274Z,79.58
2019-02-23T09:08:17.714Z,81.16
2019-02-23T09:09:27.392Z,82.29
2019-02-23T09:10:36.820Z,83.11
2019-02-23T09:11:46.507Z,83.06
2019-02-23T09:12:56.186Z,83.34
2019-02-23T09:14:06.131Z,83.78
2019-02-23T09:15:15.601Z,84.16
2019-02-23T09:16:27.344Z,83.91
2019-02-23T09:17:37.359Z,85.38
2019-02-23T09:18:47.050Z,87.42
2019-02-23T09:19:56.569Z,88.46
2019-02-23T09:21:06.003Z,87.79
2019-02-23T09:22:15.191Z,85.93
2019-02-23T09:23:24.881Z,84.67
2019-02-23T09:24:34.805Z,83
2019-02-23T09:25:44.252Z,81.79
2019-02-23T09:26:53.689Z,80.5
2019-02-23T09:28:03.395Z,79.54
2019-02-23T09:29:13.100Z,78.72
2019-02-23T09:30:23.026Z,78.34
2019-02-23T09:31:32.734Z,77.99
2019-02-23T09:32:41.930Z,77.13
2019-02-23T09:33:51.626Z,77.51
2019-02-23T09:35:01.577Z,76.89
2019-02-23T09:36:10.763Z,76.89
2019-02-23T09:37:20.446Z,77.17
2019-02-23T09:38:30.163Z,77.17
2019-02-23T09:39:39.611Z,76.44
2019-02-23T09:40:49.065Z,76.64
2019-02-23T09:42:09.336Z,76.44
2019-02-23T09:43:20.343Z,76.35
2019-02-23T09:44:29.789Z,76.35
2019-02-23T09:45:39.466Z,76.06
2019-02-23T09:46:49.412Z,76.35
2019-02-23T09:47:58.874Z,76.44
2019-02-23T09:49:08.575Z,76.15
2019-02-23T09:50:18.022Z,76.06
2019-02-23T09:51:27.707Z,75.9
2019-02-23T09:52:37.137Z,75.9
2019-02-23T09:53:47.098Z,75.81
2019-02-23T09:54:56.796Z,76.29
2019-02-23T09:56:05.998Z,76.29
2019-02-23T09:57:15.682Z,76.39
2019-02-23T09:58:24.889Z,76.29
2019-02-23T09:59:36.395Z,76.1
2019-02-23T10:00:47.613Z,76
2019-02-23T10:01:57.313Z,76.39
2019-02-23T10:03:07.015Z,76.77
2019-02-23T10:04:16.701Z,77.06
2019-02-23T10:05:26.384Z,77.25
2019-02-23T10:06:35.829Z,77
2019-02-23T10:07:45.842Z,76.9
2019-02-23T10:08:55.781Z,77
2019-02-23T10:10:05.472Z,77.48
2019-02-23T10:11:14.918Z,78.63
2019-02-23T10:12:24.602Z,78.05
2019-02-23T10:13:34.301Z,78.34
2019-02-23T10:14:44.010Z,78.86
2019-02-23T10:15:53.711Z,78.77
2019-02-23T10:17:03.412Z,78.96
2019-02-23T10:18:14.545Z,78.57
2019-02-23T10:19:24.251Z,79.05
2019-02-23T10:20:33.684Z,79.34
2019-02-23T10:21:42.870Z,79.44
2019-02-23T10:22:52.317Z,79.24
2019-02-23T10:24:01.765Z,78.67
2019-02-23T10:25:11.457Z,78.47
2019-02-23T10:26:21.110Z,78.38
2019-02-23T10:27:31.044Z,77.9
2019-02-23T10:28:40.976Z,77.51
2019-02-23T10:29:50.162Z,77.61
2019-02-23T10:30:59.351Z,78
2019-02-23T10:32:09.053Z,77.23
2019-02-23T10:33:19.007Z,77.23
2019-02-23T10:34:28.702Z,77.13
2019-02-23T10:35:38.148Z,77.13
2019-02-23T10:36:47.593Z,76.75
2019-02-23T10:37:57.036Z,76.65
2019-02-23T10:39:06.486Z,76.37
2019-02-23T10:40:15.935Z,76.75
2019-02-23T10:41:25.646Z,76.88
2019-02-23T10:42:34.845Z,77.08
2019-02-23T10:43:44.534Z,77.46
2019-02-23T10:44:54.238Z,77.46
2019-02-23T10:46:03.982Z,76.69
2019-02-23T10:47:15.102Z,76.98
2019-02-23T10:48:24.802Z,76.98
2019-02-23T10:49:34.757Z,76.21
2019-02-23T10:50:44.462Z,76.59
2019-02-23T10:51:54.153Z,76.31
2019-02-23T10:53:03.863Z,75.92
2019-02-23T10:54:13.313Z,76.4
2019-02-23T10:55:22.745Z,75.92
2019-02-23T10:56:32.446Z,75.73
2019-02-23T10:57:42.135Z,75.92
2019-02-23T10:58:51.830Z,75.82
2019-02-23T11:00:01.763Z,75.92
2019-02-23T11:01:11.450Z,75.73
2019-02-23T11:02:20.885Z,76.02
2019-02-23T11:03:30.884Z,75.92
2019-02-23T11:04:40.339Z,75.73
2019-02-23T11:05:50.339Z,75.92
2019-02-23T11:07:00.022Z,76.21
2019-02-23T11:08:09.964Z,76.69
2019-02-23T11:09:19.651Z,76.5
2019-02-23T11:10:29.581Z,76.64
2019-02-23T11:11:39.037Z,76.54
2019-02-23T11:12:51.060Z,76.54
2019-02-23T11:14:00.252Z,76.34
2019-02-23T11:15:09.943Z,76.64
2019-02-23T11:16:19.388Z,76.54
2019-02-23T11:17:29.073Z,76.64
2019-02-23T11:18:38.756Z,76.54
2019-02-23T11:19:48.202Z,76.25
2019-02-23T11:20:58.136Z,76.15
2019-02-23T11:22:08.081Z,76.34
2019-02-23T11:23:17.780Z,75.87
2019-02-23T11:24:27.226Z,76.06
2019-02-23T11:25:36.677Z,75.87
2019-02-23T11:26:46.423Z,75.77
2019-02-23T11:27:56.108Z,76.06
2019-02-23T11:29:05.795Z,76.06
2019-02-23T11:30:15.276Z,75.96
2019-02-23T11:31:24.979Z,76.06
2019-02-23T11:32:34.906Z,76.06
2019-02-23T11:33:44.849Z,76
2019-02-23T11:34:54.539Z,76.09
2019-02-23T11:36:04.559Z,76
2019-02-23T11:37:14.266Z,75.81
2019-02-23T11:38:23.966Z,76.19
2019-02-23T11:39:33.647Z,76.25
2019-02-23T11:40:43.333Z,76.29
2019-02-23T11:41:52.787Z,76.19
2019-02-23T11:43:02.220Z,76.29
2019-02-23T11:44:11.667Z,76
2019-02-23T11:45:21.608Z,76.09
2019-02-23T11:46:33.407Z,76.29
2019-02-23T11:48:02.035Z,75.71
2019-02-23T11:49:11.477Z,75.84
2019-02-23T11:50:21.183Z,75.71
2019-02-23T11:51:30.871Z,75.56
2019-02-23T11:52:41.918Z,75.56
2019-02-23T11:53:57.352Z,75.46
2019-02-23T11:55:07.049Z,75.37
2019-02-23T11:56:16.500Z,75.56
2019-02-23T11:57:26.455Z,75.07
2019-02-23T11:58:36.475Z,75.27
2019-02-23T11:59:45.672Z,75.07
2019-02-23T12:00:55.602Z,75.07
2019-02-23T12:02:05.045Z,75.07
2019-02-23T12:03:14.998Z,75.07
2019-02-23T12:04:24.491Z,75.07
2019-02-23T12:05:34.453Z,75.07
2019-02-23T12:06:44.135Z,74.98
2019-02-23T12:07:53.827Z,75.07
2019-02-23T12:09:03.783Z,74.88
2019-02-23T12:10:13.733Z,75.07
2019-02-23T12:11:23.681Z,75.17
2019-02-23T12:12:33.377Z,74.88
2019-02-23T12:13:43.322Z,74.88
2019-02-23T12:14:53.277Z,75.07
2019-02-23T12:16:03.080Z,75.17
2019-02-23T12:17:12.774Z,75.17
2019-02-23T12:18:22.715Z,74.79
2019-02-23T12:19:32.455Z,74.98
2019-02-23T12:20:42.154Z,74.98
2019-02-23T12:21:51.844Z,75.46
2019-02-23T12:23:01.278Z,75.27
2019-02-23T12:24:10.528Z,75.46
2019-02-23T12:25:20.234Z,75.27
2019-02-23T12:26:29.920Z,75.31
2019-02-23T12:27:39.359Z,75.69
2019-02-23T12:28:49.046Z,75.59
2019-02-23T12:29:58.243Z,75.79
2019-02-23T12:31:07.924Z,75.59
2019-02-23T12:32:17.112Z,75.94
2019-02-23T12:33:27.054Z,76.04
2019-02-23T12:34:36.740Z,76.36
2019-02-23T12:35:46.427Z,76.32
2019-02-23T12:36:57.580Z,76.14
2019-02-23T12:38:07.628Z,76.04
2019-02-23T12:39:17.376Z,75.98
2019-02-23T12:40:27.068Z,75.75
2019-02-23T12:41:36.501Z,76.04
2019-02-23T12:42:45.951Z,75.94
2019-02-23T12:43:55.392Z,75.98
2019-02-23T12:45:05.089Z,76.04
2019-02-23T12:46:14.785Z,76.04
2019-02-23T12:47:23.730Z,76.07
2019-02-23T12:48:33.680Z,76.14
2019-02-23T12:49:42.901Z,76.26
2019-02-23T12:50:52.120Z,76.14
2019-02-23T12:52:01.563Z,76.14
2019-02-23T12:53:11.266Z,76.04
2019-02-23T12:54:20.970Z,76.52
2019-02-23T12:55:30.681Z,76.23
2019-02-23T12:56:40.668Z,76.07
2019-02-23T12:57:50.116Z,76.17
2019-02-23T12:59:00.070Z,76.07
2019-02-23T13:00:09.761Z,76.23
2019-02-23T13:01:19.762Z,75.65
2019-02-23T13:02:29.221Z,75.84
2019-02-23T13:03:38.898Z,76.04
2019-02-23T13:04:48.832Z,75.59
2019-02-23T13:05:58.273Z,75.37
2019-02-23T13:07:07.966Z,75.37
2019-02-23T13:08:17.911Z,75.65
2019-02-23T13:09:27.590Z,75.37
2019-02-23T13:10:36.784Z,75.56
2019-02-23T13:11:46.466Z,75.37
2019-02-23T13:12:56.238Z,75.37
2019-02-23T13:14:05.438Z,75.75
2019-02-23T13:15:15.129Z,75.84
2019-02-23T13:16:24.829Z,75.94
2019-02-23T13:17:34.771Z,75.84
2019-02-23T13:18:44.208Z,75.56
2019-02-23T13:19:53.893Z,75.84
2019-02-23T13:21:03.864Z,75.46
2019-02-23T13:22:13.562Z,76.04
2019-02-23T13:23:23.250Z,75.37
2019-02-23T13:24:32.451Z,75.65
2019-02-23T13:25:42.421Z,75.94
2019-02-23T13:26:52.357Z,75.37
2019-02-23T13:28:02.054Z,76.04
2019-02-23T13:29:11.234Z,75.94
2019-02-23T13:30:21.181Z,76.14
2019-02-23T13:31:30.638Z,76.04
2019-02-23T13:32:40.571Z,76.32
2019-02-23T13:33:50.019Z,77.04
2019-02-23T13:34:59.715Z,77.29
2019-02-23T13:36:09.163Z,77
2019-02-23T13:37:18.681Z,77.04
2019-02-23T13:38:28.660Z,77.04
2019-02-23T13:39:38.599Z,77.42
2019-02-23T13:40:48.304Z,77.23
2019-02-23T13:41:58.019Z,77.42
2019-02-23T13:43:08.646Z,77.23
2019-02-23T13:44:19.343Z,76.94
2019-02-23T13:45:29.464Z,77.42
2019-02-23T13:46:38.899Z,77.51
2019-02-23T13:47:48.846Z,76.94
2019-02-23T13:48:58.786Z,76.94
2019-02-23T13:50:08.502Z,77.13
2019-02-23T13:51:17.941Z,77.04
2019-02-23T13:52:27.631Z,77.13
2019-02-23T13:53:37.078Z,77.04
2019-02-23T13:54:46.514Z,77.26
2019-02-23T13:55:56.471Z,77.23
2019-02-23T13:57:06.412Z,77.04
2019-02-23T13:58:15.860Z,77.17
2019-02-23T13:59:26.558Z,77.04
2019-02-23T14:00:36.250Z,76.56
2019-02-23T14:01:45.951Z,76.65
2019-02-23T14:02:55.653Z,76.65
2019-02-23T14:04:05.090Z,76.94
2019-02-23T14:05:14.808Z,76.75
2019-02-23T14:06:24.495Z,76.56
2019-02-23T14:07:34.444Z,76.65
2019-02-23T14:08:44.383Z,76.65
2019-02-23T14:09:54.069Z,76.36
2019-02-23T14:11:03.777Z,76.56
2019-02-23T14:12:13.462Z,76.46
2019-02-23T14:13:23.167Z,76.46
2019-02-23T14:14:32.858Z,76.36
2019-02-23T14:15:42.794Z,76.36
2019-02-23T14:16:54.927Z,76.84
2019-02-23T14:18:04.874Z,76.75
2019-02-23T14:19:15.610Z,77.51
2019-02-23T14:20:25.048Z,77.23
2019-02-23T14:21:34.996Z,77.36
2019-02-23T14:22:44.681Z,77.36
2019-02-23T14:23:54.375Z,77.65
2019-02-23T14:25:04.321Z,77.56
2019-02-23T14:26:13.768Z,77.56
2019-02-23T14:27:23.217Z,77.46
2019-02-23T14:28:32.907Z,77.46
2019-02-23T14:29:42.853Z,77.36
2019-02-23T14:30:52.039Z,77.36
2019-02-23T14:32:01.737Z,77.26
2019-02-23T14:33:11.431Z,77.08
2019-02-23T14:34:20.951Z,76.98
2019-02-23T14:35:30.699Z,77.17
2019-02-23T14:36:39.904Z,77.08
2019-02-23T14:37:49.594Z,76.69
2019-02-23T14:39:00.308Z,76.78
2019-02-23T14:40:10.432Z,76.78
2019-02-23T14:41:20.516Z,76.98
2019-02-23T14:42:30.571Z,76.78
2019-02-23T14:43:40.550Z,76.78
2019-02-23T14:44:50.301Z,76.88
2019-02-23T14:46:00.321Z,76.31
2019-02-23T14:47:09.871Z,76.59
2019-02-23T14:48:19.657Z,76.11
2019-02-23T14:49:29.668Z,76.59
2019-02-23T14:50:39.158Z,76.59
2019-02-23T14:51:48.684Z,76.31
2019-02-23T14:52:58.514Z,76.21
2019-02-23T14:54:08.581Z,76.31
2019-02-23T14:55:18.329Z,76.11
2019-02-23T14:56:28.061Z,76.11
2019-02-23T14:57:37.605Z,76.11
2019-02-23T14:58:46.816Z,76.11
2019-02-23T14:59:56.856Z,75.44
2019-02-23T15:01:06.042Z,76.11
2019-02-23T15:02:15.486Z,75.44
2019-02-23T15:03:25.440Z,75.63
2019-02-23T15:04:34.873Z,75.82